createdAt,value
2023-05-02T00:01:18.533Z,11.80
2023-05-02T00:03:45.325Z,11.80
2023-05-02T00:06:12.115Z,11.70
2023-05-02T00:08:38.912Z,11.70
2023-05-02T00:11:05.757Z,11.70
2023-05-02T00:13:32.319Z,11.70
2023-05-02T00:15:58.819Z,11.70
2023-05-02T00:18:25.296Z,11.70
2023-05-02T00:20:51.776Z,11.70
2023-05-02T00:23:18.222Z,11.60
2023-05-02T00:25:47.965Z,11.60
2023-05-02T00:28:14.379Z,11.60
2023-05-02T00:30:45.488Z,11.60
2023-05-02T00:33:13.379Z,11.60
2023-05-02T00:35:40.603Z,11.50
2023-05-02T00:38:07.621Z,11.40
2023-05-02T00:40:48.264Z,11.30
2023-05-02T00:43:15.979Z,11.00
2023-05-02T00:45:43.602Z,10.90
2023-05-02T00:48:11.267Z,10.70
2023-05-02T00:50:42.838Z,10.70
2023-05-02T00:53:10.602Z,10.70
2023-05-02T00:55:37.649Z,10.70
2023-05-02T00:58:13.414Z,10.80
2023-05-02T01:00:58.798Z,10.80
2023-05-02T01:03:54.948Z,10.80
2023-05-02T01:06:47.937Z,10.70
2023-05-02T01:09:34.096Z,10.50
2023-05-02T01:12:06.854Z,10.40
2023-05-02T01:14:41.094Z,10.40
2023-05-02T01:17:12.128Z,10.60
2023-05-02T01:19:43.626Z,10.70
2023-05-02T01:22:11.781Z,10.80
2023-05-02T01:25:18.806Z,10.80
2023-05-02T01:28:19.138Z,10.80
2023-05-02T01:30:47.236Z,10.80
2023-05-02T01:33:16.987Z,10.70
2023-05-02T01:35:46.454Z,10.50
2023-05-02T01:38:16.681Z,10.40
2023-05-02T01:40:45.632Z,10.40
2023-05-02T01:43:15.406Z,10.30
2023-05-02T01:45:44.494Z,10.30
2023-05-02T01:48:11.967Z,10.40
2023-05-02T01:50:41.614Z,10.40
2023-05-02T01:53:09.559Z,10.40
2023-05-02T01:55:38.181Z,10.30
2023-05-02T01:58:06.506Z,10.30
2023-05-02T02:00:34.493Z,10.30
2023-05-02T02:03:02.262Z,10.40
2023-05-02T02:05:29.439Z,10.40
2023-05-02T02:07:55.962Z,10.50
2023-05-02T02:10:25.625Z,10.50
2023-05-02T02:12:54.117Z,10.50
2023-05-02T02:15:34.521Z,10.40
2023-05-02T02:18:05.546Z,10.30
2023-05-02T02:20:32.694Z,10.30
2023-05-02T02:23:05.177Z,10.20
2023-05-02T02:25:33.864Z,10.20
2023-05-02T02:28:01.129Z,10.20
2023-05-02T02:30:27.945Z,10.20
2023-05-02T02:32:54.533Z,10.00
2023-05-02T02:35:23.540Z,9.90
2023-05-02T02:38:05.779Z,9.90
2023-05-02T02:40:46.599Z,10.00
2023-05-02T02:43:51.656Z,10.10
2023-05-02T02:46:49.057Z,10.10
2023-05-02T02:49:31.011Z,10.00
2023-05-02T02:52:10.901Z,9.90
2023-05-02T02:54:51.263Z,9.90
2023-05-02T02:57:47.436Z,10.00
2023-05-02T03:00:19.091Z,9.90
2023-05-02T03:02:47.360Z,9.90
2023-05-02T03:05:14.399Z,9.80
2023-05-02T03:07:41.395Z,9.70
2023-05-02T03:10:08.448Z,9.80
2023-05-02T03:12:37.287Z,9.80
2023-05-02T03:15:24.875Z,9.80
2023-05-02T03:17:52.117Z,9.80
2023-05-02T03:20:19.097Z,9.90
2023-05-02T03:22:45.825Z,9.90
2023-05-02T03:25:12.776Z,9.90
2023-05-02T03:27:43.340Z,9.90
2023-05-02T03:30:11.785Z,10.00
2023-05-02T03:32:38.450Z,10.00
2023-05-02T03:35:05.786Z,9.90
2023-05-02T03:37:37.750Z,9.90
2023-05-02T03:40:04.814Z,9.90
2023-05-02T03:42:31.453Z,9.90
2023-05-02T03:44:58.205Z,9.80
2023-05-02T03:47:27.037Z,9.80
2023-05-02T03:49:53.757Z,9.80
2023-05-02T03:52:21.259Z,9.90
2023-05-02T03:54:50.239Z,9.80
2023-05-02T03:57:17.402Z,9.80
2023-05-02T03:59:45.724Z,9.80
2023-05-02T04:02:21.249Z,9.80
2023-05-02T04:04:49.233Z,9.80
2023-05-02T04:07:19.522Z,9.80
2023-05-02T04:09:50.266Z,9.70
2023-05-02T04:12:16.820Z,9.60
2023-05-02T04:14:47.091Z,9.70
2023-05-02T04:17:16.066Z,9.80
2023-05-02T04:19:46.172Z,9.50
2023-05-02T04:22:13.730Z,9.40
2023-05-02T04:24:45.356Z,9.30
2023-05-02T04:27:15.461Z,9.40
2023-05-02T04:29:42.705Z,9.30
2023-05-02T04:32:11.569Z,9.20
2023-05-02T04:34:39.284Z,9.20
2023-05-02T04:37:06.261Z,9.30
2023-05-02T04:39:34.371Z,9.30
2023-05-02T04:42:04.901Z,9.30
2023-05-02T04:44:36.381Z,9.40
2023-05-02T04:47:04.496Z,9.40
2023-05-02T04:49:32.143Z,9.50
2023-05-02T04:51:58.928Z,9.50
2023-05-02T04:54:25.434Z,9.60
2023-05-02T04:56:52.079Z,9.60
2023-05-02T04:59:19.966Z,9.50
2023-05-02T05:01:46.907Z,9.60
2023-05-02T05:04:13.921Z,9.70
2023-05-02T05:06:41.096Z,9.70
2023-05-02T05:09:08.822Z,9.70
2023-05-02T05:11:36.364Z,9.70
2023-05-02T05:14:04.266Z,9.90
2023-05-02T05:16:33.412Z,10.00
2023-05-02T05:19:00.311Z,10.20
2023-05-02T05:21:27.220Z,10.20
2023-05-02T05:23:54.981Z,10.20
2023-05-02T05:26:26.750Z,10.30
2023-05-02T05:28:53.784Z,10.40
2023-05-02T05:31:24.365Z,10.50
2023-05-02T05:33:55.075Z,10.60
2023-05-02T05:36:23.750Z,10.70
2023-05-02T05:38:51.134Z,10.80
2023-05-02T05:41:18.571Z,10.70
2023-05-02T05:43:48.857Z,10.80
2023-05-02T05:46:15.589Z,10.90
2023-05-02T05:48:42.204Z,11.00
2023-05-02T05:51:09.497Z,11.00
2023-05-02T05:53:36.166Z,11.00
2023-05-02T05:56:11.416Z,11.00
2023-05-02T05:58:40.898Z,11.20
2023-05-02T06:01:08.314Z,11.40
2023-05-02T06:03:36.215Z,11.80
2023-05-02T06:06:03.032Z,12.00
2023-05-02T06:08:29.668Z,12.20
2023-05-02T06:10:56.206Z,12.30
2023-05-02T06:13:23.324Z,12.30
2023-05-02T06:15:51.057Z,12.40
2023-05-02T06:18:17.860Z,12.40
2023-05-02T06:20:44.374Z,12.60
2023-05-02T06:23:10.861Z,12.70
2023-05-02T06:25:38.148Z,12.80
2023-05-02T06:28:04.851Z,12.90
2023-05-02T06:30:31.330Z,12.90
2023-05-02T06:32:57.896Z,13.10
2023-05-02T06:35:24.423Z,13.20
2023-05-02T06:37:51.069Z,13.30
2023-05-02T06:40:17.636Z,13.50
2023-05-02T06:42:44.168Z,13.60
2023-05-02T06:45:11.117Z,13.60
2023-05-02T06:47:37.652Z,13.50
2023-05-02T06:50:04.408Z,13.70
2023-05-02T06:52:31.015Z,14.00
2023-05-02T06:54:57.946Z,14.30
2023-05-02T06:57:24.954Z,14.60
2023-05-02T06:59:51.474Z,14.60
2023-05-02T07:02:18.091Z,14.60
2023-05-02T07:04:44.702Z,14.60
2023-05-02T07:07:11.246Z,14.70
2023-05-02T07:09:38.121Z,15.00
2023-05-02T07:12:06.730Z,15.00
2023-05-02T07:14:33.576Z,15.10
2023-05-02T07:17:00.322Z,15.10
2023-05-02T07:19:26.968Z,15.00
2023-05-02T07:21:53.488Z,14.90
2023-05-02T07:24:19.947Z,14.90
2023-05-02T07:26:46.493Z,15.00
2023-05-02T07:29:12.977Z,15.10
2023-05-02T07:31:39.602Z,15.20
2023-05-02T07:34:06.307Z,15.30
2023-05-02T07:36:32.873Z,15.50
2023-05-02T07:38:59.667Z,15.70
2023-05-02T07:41:26.097Z,15.80
2023-05-02T07:43:52.673Z,15.90
2023-05-02T07:46:19.209Z,15.80
2023-05-02T07:48:45.736Z,15.80
2023-05-02T07:51:12.744Z,15.80
2023-05-02T07:53:39.264Z,15.70
2023-05-02T07:56:06.904Z,15.80
2023-05-02T07:58:33.404Z,15.80
2023-05-02T08:00:59.882Z,15.90
2023-05-02T08:03:27.879Z,15.80
2023-05-02T08:05:54.521Z,15.80
2023-05-02T08:08:21.054Z,15.60
2023-05-02T08:10:47.564Z,15.50
2023-05-02T08:13:14.124Z,15.50
2023-05-02T08:15:40.649Z,15.70
2023-05-02T08:18:07.243Z,15.60
2023-05-02T08:20:33.752Z,15.70
2023-05-02T08:23:00.518Z,15.70
2023-05-02T08:25:27.215Z,15.70
2023-05-02T08:27:54.090Z,15.80
2023-05-02T08:30:20.733Z,15.90
2023-05-02T08:32:47.380Z,15.80
2023-05-02T08:35:13.923Z,16.00
2023-05-02T08:37:40.469Z,16.20
2023-05-02T08:40:11.844Z,16.40
2023-05-02T08:42:43.372Z,16.50
2023-05-02T08:45:13.964Z,16.70
2023-05-02T08:47:41.010Z,16.70
2023-05-02T08:50:11.820Z,16.60
2023-05-02T08:52:39.069Z,16.50
2023-05-02T08:55:07.528Z,16.60
2023-05-02T08:57:34.125Z,16.60
2023-05-02T09:00:01.063Z,16.50
2023-05-02T09:03:01.810Z,16.50
2023-05-02T09:05:33.458Z,16.40
2023-05-02T09:08:00.005Z,16.30
2023-05-02T09:10:28.855Z,16.20
2023-05-02T09:12:55.558Z,16.20
2023-05-02T09:15:22.479Z,16.30
2023-05-02T09:17:49.459Z,16.40
2023-05-02T09:20:16.736Z,16.40
2023-05-02T09:22:53.166Z,16.40
2023-05-02T09:25:20.690Z,16.40
2023-05-02T09:27:55.162Z,16.20
2023-05-02T09:30:26.258Z,16.20
2023-05-02T09:32:56.447Z,16.10
2023-05-02T09:35:26.218Z,16.00
2023-05-02T09:37:54.745Z,16.20
2023-05-02T09:40:21.506Z,16.30
2023-05-02T09:42:48.036Z,16.40
2023-05-02T09:45:25.177Z,16.60
2023-05-02T09:47:52.783Z,16.80
2023-05-02T09:50:36.561Z,16.90
2023-05-02T09:53:08.372Z,16.90
2023-05-02T09:55:35.698Z,17.10
2023-05-02T09:58:02.342Z,17.30
2023-05-02T10:00:43.137Z,17.50
2023-05-02T10:03:10.321Z,17.60
2023-05-02T10:05:38.790Z,17.50
2023-05-02T10:08:10.208Z,17.60
2023-05-02T10:10:38.724Z,17.70
2023-05-02T10:13:06.272Z,17.70
2023-05-02T10:15:33.832Z,17.70
2023-05-02T10:18:05.224Z,17.60
2023-05-02T10:20:49.626Z,17.80
2023-05-02T10:23:17.071Z,18.10
2023-05-02T10:25:43.781Z,18.10
2023-05-02T10:28:11.253Z,18.00
2023-05-02T10:30:41.140Z,17.80
2023-05-02T10:33:07.727Z,17.80
2023-05-02T10:35:37.056Z,17.70
2023-05-02T10:38:03.907Z,17.60
2023-05-02T10:40:31.235Z,17.50
2023-05-02T10:42:58.012Z,17.40
2023-05-02T10:45:35.819Z,17.50
2023-05-02T10:48:27.923Z,17.60
2023-05-02T10:51:01.388Z,17.70
2023-05-02T10:53:40.195Z,17.70
2023-05-02T10:56:21.765Z,18.00
2023-05-02T10:58:53.497Z,18.20
2023-05-02T11:01:27.104Z,18.50
2023-05-02T11:03:57.645Z,18.60
2023-05-02T11:06:37.497Z,18.50
2023-05-02T11:09:26.990Z,18.10
2023-05-02T11:11:56.370Z,17.80
2023-05-02T11:14:25.873Z,17.80
2023-05-02T11:16:58.879Z,17.70
2023-05-02T11:19:27.316Z,17.60
2023-05-02T11:22:28.051Z,17.50
2023-05-02T11:24:54.550Z,17.50
2023-05-02T11:27:43.366Z,17.60
2023-05-02T11:30:11.091Z,17.60
2023-05-02T11:32:47.541Z,17.60
2023-05-02T11:35:22.010Z,17.50
2023-05-02T11:37:55.178Z,17.40
2023-05-02T11:40:22.385Z,17.40
2023-05-02T11:42:48.884Z,17.60
2023-05-02T11:45:15.617Z,17.70
2023-05-02T11:47:43.398Z,18.00
2023-05-02T11:50:10.359Z,18.10
2023-05-02T11:52:42.076Z,18.10
2023-05-02T11:55:12.447Z,18.10
2023-05-02T11:57:39.841Z,17.80
2023-05-02T12:00:08.259Z,17.60
2023-05-02T12:02:43.026Z,17.40
2023-05-02T12:05:14.224Z,17.10
2023-05-02T12:07:45.844Z,17.00
2023-05-02T12:10:13.911Z,16.90
2023-05-02T12:12:43.380Z,16.80
2023-05-02T12:15:11.785Z,16.80
2023-05-02T12:17:43.408Z,16.90
2023-05-02T12:20:10.798Z,16.90
2023-05-02T12:22:37.806Z,17.10
2023-05-02T12:25:05.740Z,17.10
2023-05-02T12:27:33.410Z,17.10
2023-05-02T12:30:00.609Z,17.10
2023-05-02T12:32:32.074Z,17.20
2023-05-02T12:34:59.817Z,17.50
2023-05-02T12:37:27.385Z,17.90
2023-05-02T12:39:55.457Z,18.40
2023-05-02T12:42:24.296Z,18.60
2023-05-02T12:44:52.239Z,18.80
2023-05-02T12:47:20.072Z,19.10
2023-05-02T12:49:53.082Z,19.60
2023-05-02T12:52:21.052Z,19.40
2023-05-02T12:54:48.339Z,19.30
2023-05-02T12:57:25.690Z,19.30
2023-05-02T12:59:54.140Z,19.20
2023-05-02T13:02:21.608Z,19.00
2023-05-02T13:04:48.222Z,19.00
2023-05-02T13:07:14.697Z,18.90
2023-05-02T13:09:41.465Z,18.80
2023-05-02T13:12:08.540Z,18.70
2023-05-02T13:14:35.125Z,18.60
2023-05-02T13:17:01.714Z,18.50
2023-05-02T13:19:31.136Z,18.60
2023-05-02T13:21:57.832Z,18.60
2023-05-02T13:24:24.451Z,18.60
2023-05-02T13:26:51.568Z,18.60
2023-05-02T13:29:18.033Z,18.60
2023-05-02T13:31:44.555Z,18.60
2023-05-02T13:34:11.026Z,18.90
2023-05-02T13:36:40.664Z,19.20
2023-05-02T13:39:07.128Z,19.70
2023-05-02T13:41:33.584Z,20.10
2023-05-02T13:44:00.014Z,19.90
2023-05-02T13:46:26.795Z,20.10
2023-05-02T13:48:53.352Z,20.30
2023-05-02T13:51:19.827Z,20.50
2023-05-02T13:53:46.334Z,20.20
2023-05-02T13:56:12.730Z,19.90
2023-05-02T13:58:39.207Z,19.90
2023-05-02T14:01:05.732Z,20.00
2023-05-02T14:03:32.508Z,20.00
2023-05-02T14:05:59.010Z,20.00
2023-05-02T14:08:25.503Z,19.90
2023-05-02T14:10:51.927Z,19.80
2023-05-02T14:13:18.380Z,19.80
2023-05-02T14:15:44.840Z,19.60
2023-05-02T14:18:11.343Z,19.50
2023-05-02T14:20:37.862Z,19.40
2023-05-02T14:23:05.485Z,19.40
2023-05-02T14:25:34.362Z,19.40
2023-05-02T14:28:01.643Z,19.50
2023-05-02T14:30:28.518Z,19.60
2023-05-02T14:32:55.131Z,19.80
2023-05-02T14:35:21.809Z,20.10
2023-05-02T14:37:48.398Z,20.30
2023-05-02T14:40:15.194Z,20.60
2023-05-02T14:42:42.318Z,20.90
2023-05-02T14:45:10.127Z,21.10
2023-05-02T14:47:36.656Z,21.20
2023-05-02T14:50:04.755Z,21.20
2023-05-02T14:52:31.788Z,21.20
2023-05-02T14:55:02.510Z,21.30
2023-05-02T14:57:29.220Z,21.40
2023-05-02T14:59:55.840Z,21.50
2023-05-02T15:02:22.441Z,21.60
2023-05-02T15:04:48.992Z,21.60
2023-05-02T15:07:16.047Z,21.40
2023-05-02T15:09:42.853Z,20.80
2023-05-02T15:12:09.295Z,20.20
2023-05-02T15:14:35.743Z,19.90
2023-05-02T15:17:02.342Z,19.80
2023-05-02T15:19:29.319Z,19.80
2023-05-02T15:21:57.636Z,19.90
2023-05-02T15:24:24.572Z,19.70
2023-05-02T15:26:51.719Z,19.70
2023-05-02T15:29:18.255Z,19.90
2023-05-02T15:31:44.832Z,19.90
2023-05-02T15:34:11.342Z,19.90
2023-05-02T15:36:37.908Z,19.80
2023-05-02T15:39:05.320Z,19.80
2023-05-02T15:41:32.197Z,19.80
2023-05-02T15:43:59.042Z,19.80
2023-05-02T15:46:25.930Z,19.90
2023-05-02T15:48:52.563Z,20.00
2023-05-02T15:51:19.118Z,20.00
2023-05-02T15:53:49.637Z,20.10
2023-05-02T15:56:16.570Z,20.30
2023-05-02T15:58:43.191Z,20.50
2023-05-02T16:01:09.712Z,20.60
2023-05-02T16:03:36.877Z,20.60
2023-05-02T16:06:06.346Z,20.30
2023-05-02T16:08:33.109Z,19.80
2023-05-02T16:11:01.807Z,19.40
2023-05-02T16:13:28.359Z,19.40
2023-05-02T16:15:56.164Z,19.80
2023-05-02T16:18:27.902Z,20.00
2023-05-02T16:20:56.960Z,20.10
2023-05-02T16:23:24.453Z,20.20
2023-05-02T16:25:57.144Z,20.20
2023-05-02T16:28:23.637Z,20.30
2023-05-02T16:30:50.547Z,20.30
2023-05-02T16:33:17.026Z,20.50
2023-05-02T16:35:43.498Z,20.80
2023-05-02T16:38:10.061Z,21.00
2023-05-02T16:40:36.940Z,21.20
2023-05-02T16:43:03.415Z,21.10
2023-05-02T16:45:29.983Z,21.10
2023-05-02T16:47:57.039Z,21.20
2023-05-02T16:50:23.758Z,21.30
2023-05-02T16:52:50.220Z,21.30
2023-05-02T16:55:16.869Z,21.30
2023-05-02T16:57:43.398Z,21.20
2023-05-02T17:00:12.323Z,21.20
2023-05-02T17:02:38.835Z,21.20
2023-05-02T17:05:05.750Z,20.70
2023-05-02T17:07:32.428Z,20.00
2023-05-02T17:09:59.440Z,19.70
2023-05-02T17:12:25.903Z,19.90
2023-05-02T17:14:52.362Z,20.10
2023-05-02T17:17:22.571Z,20.30
2023-05-02T17:19:49.764Z,20.20
2023-05-02T17:22:16.524Z,19.60
2023-05-02T17:24:43.688Z,18.90
2023-05-02T17:27:11.548Z,18.40
2023-05-02T17:29:38.407Z,18.10
2023-05-02T17:32:05.299Z,18.20
2023-05-02T17:34:33.586Z,18.70
2023-05-02T17:37:00.034Z,18.40
2023-05-02T17:39:26.497Z,19.00
2023-05-02T17:41:52.946Z,19.30
2023-05-02T17:44:19.475Z,19.50
2023-05-02T17:46:46.706Z,19.50
2023-05-02T17:49:13.356Z,19.30
2023-05-02T17:51:39.819Z,18.80
2023-05-02T17:54:06.289Z,18.30
2023-05-02T17:56:34.963Z,17.90
2023-05-02T17:59:01.554Z,17.50
2023-05-02T18:01:28.073Z,17.20
2023-05-02T18:03:54.754Z,16.90
2023-05-02T18:06:21.447Z,16.70
2023-05-02T18:08:47.936Z,16.60
2023-05-02T18:11:16.631Z,16.40
2023-05-02T18:13:44.152Z,16.20
2023-05-02T18:16:10.872Z,16.10
2023-05-02T18:18:37.454Z,16.00
2023-05-02T18:21:04.280Z,16.00
2023-05-02T18:23:30.745Z,15.90
2023-05-02T18:25:57.378Z,15.80
2023-05-02T18:28:23.912Z,15.70
2023-05-02T18:30:50.370Z,15.50
2023-05-02T18:33:16.996Z,15.40
2023-05-02T18:35:48.398Z,15.30
2023-05-02T18:38:15.846Z,15.20
2023-05-02T18:40:42.803Z,15.10
2023-05-02T18:43:09.248Z,15.00
2023-05-02T18:45:36.055Z,14.90
2023-05-02T18:48:03.406Z,14.80
2023-05-02T18:50:29.958Z,14.70
2023-05-02T18:52:56.445Z,14.70
2023-05-02T18:55:25.201Z,14.70
2023-05-02T18:57:52.061Z,14.70
2023-05-02T19:00:20.132Z,14.50
2023-05-02T19:02:47.523Z,14.40
2023-05-02T19:05:14.481Z,14.30
2023-05-02T19:07:40.973Z,14.20
2023-05-02T19:10:07.669Z,14.20
2023-05-02T19:12:34.121Z,14.10
2023-05-02T19:15:01.411Z,14.10
2023-05-02T19:17:28.556Z,14.10
2023-05-02T19:19:56.296Z,14.10
2023-05-02T19:22:27.431Z,14.00
2023-05-02T19:24:54.016Z,13.90
2023-05-02T19:27:20.618Z,13.80
2023-05-02T19:29:47.044Z,13.80
2023-05-02T19:32:14.559Z,13.70
2023-05-02T19:34:41.509Z,13.70
2023-05-02T19:37:08.163Z,13.70
2023-05-02T19:39:34.719Z,13.60
2023-05-02T19:42:01.658Z,13.80
2023-05-02T19:44:28.146Z,13.70
2023-05-02T19:46:54.621Z,13.60
2023-05-02T19:49:21.247Z,13.50
2023-05-02T19:51:47.818Z,13.50
2023-05-02T19:54:14.266Z,13.50
2023-05-02T19:56:43.047Z,13.50
2023-05-02T19:59:09.550Z,13.50
2023-05-02T20:01:36.101Z,13.30
2023-05-02T20:04:02.808Z,13.20
2023-05-02T20:06:31.366Z,13.10
2023-05-02T20:08:58.048Z,13.10
2023-05-02T20:11:25.808Z,13.10
2023-05-02T20:13:52.564Z,13.00
2023-05-02T20:16:19.180Z,13.00
2023-05-02T20:18:45.696Z,12.90
2023-05-02T20:21:12.198Z,12.80
2023-05-02T20:23:40.146Z,12.80
2023-05-02T20:26:06.633Z,12.80
2023-05-02T20:28:33.186Z,12.70
2023-05-02T20:30:59.696Z,12.60
2023-05-02T20:33:37.054Z,12.60
2023-05-02T20:36:08.034Z,12.50
2023-05-02T20:38:34.511Z,12.40
2023-05-02T20:41:00.958Z,12.40
2023-05-02T20:43:28.986Z,12.40
2023-05-02T20:45:56.449Z,12.50
2023-05-02T20:48:22.950Z,12.40
2023-05-02T20:50:54.088Z,12.40
2023-05-02T20:53:23.606Z,12.50
2023-05-02T20:55:50.455Z,12.40
2023-05-02T20:58:16.949Z,12.40
2023-05-02T21:00:43.385Z,12.30
2023-05-02T21:03:09.975Z,12.30
2023-05-02T21:05:36.503Z,12.30
2023-05-02T21:08:03.085Z,12.20
2023-05-02T21:10:30.457Z,12.30
2023-05-02T21:12:56.896Z,12.40
2023-05-02T21:15:23.310Z,12.40
2023-05-02T21:17:49.946Z,12.40
2023-05-02T21:20:16.405Z,12.30
2023-05-02T21:22:42.872Z,12.30
2023-05-02T21:25:09.738Z,12.30
2023-05-02T21:27:36.247Z,12.30
2023-05-02T21:30:02.923Z,12.20
2023-05-02T21:32:29.772Z,12.00
2023-05-02T21:34:56.257Z,11.90
2023-05-02T21:37:22.859Z,11.90
2023-05-02T21:39:49.314Z,12.00
2023-05-02T21:42:15.834Z,12.00
2023-05-02T21:44:42.328Z,12.00
2023-05-02T21:47:09.052Z,11.90
2023-05-02T21:49:35.720Z,11.80
2023-05-02T21:52:03.414Z,11.80
2023-05-02T21:54:29.877Z,11.70
2023-05-02T21:56:56.433Z,11.60
2023-05-02T21:59:22.847Z,11.30
2023-05-02T22:01:49.483Z,11.30
2023-05-02T22:04:16.330Z,11.20
2023-05-02T22:06:43.019Z,11.20
2023-05-02T22:09:10.552Z,11.10
2023-05-02T22:11:37.187Z,11.00
2023-05-02T22:14:03.639Z,11.00
2023-05-02T22:16:30.171Z,11.00
2023-05-02T22:18:57.859Z,10.90
2023-05-02T22:21:24.835Z,10.80
2023-05-02T22:23:51.454Z,10.70
2023-05-02T22:26:17.938Z,10.50
2023-05-02T22:28:44.366Z,10.40
2023-05-02T22:31:10.931Z,10.40
2023-05-02T22:33:37.366Z,10.40
2023-05-02T22:36:04.069Z,10.30
2023-05-02T22:38:30.605Z,10.30
2023-05-02T22:40:57.048Z,10.30
2023-05-02T22:43:23.512Z,10.20
2023-05-02T22:45:51.214Z,10.20
2023-05-02T22:48:17.942Z,10.30
2023-05-02T22:50:48.536Z,10.20
2023-05-02T22:53:15.001Z,10.20
2023-05-02T22:55:41.599Z,10.20
2023-05-02T22:58:08.058Z,10.20
2023-05-02T23:00:34.557Z,10.10
2023-05-02T23:03:01.226Z,10.10
2023-05-02T23:05:29.298Z,10.10
2023-05-02T23:07:56.002Z,10.10
2023-05-02T23:10:22.434Z,10.10
2023-05-02T23:12:48.872Z,10.10
2023-05-02T23:15:15.346Z,10.00
2023-05-02T23:17:42.912Z,9.90
2023-05-02T23:20:13.003Z,9.90
2023-05-02T23:22:46.219Z,9.90
2023-05-02T23:25:14.157Z,9.80
2023-05-02T23:27:40.738Z,9.70
2023-05-02T23:30:08.348Z,9.60
2023-05-02T23:32:34.980Z,9.70
2023-05-02T23:35:01.902Z,9.60
2023-05-02T23:37:28.570Z,9.50
2023-05-02T23:39:55.107Z,9.50
2023-05-02T23:42:21.924Z,9.60
2023-05-02T23:44:48.525Z,9.60
2023-05-02T23:47:14.951Z,9.50
2023-05-02T23:49:41.383Z,9.40
2023-05-02T23:52:07.896Z,9.40
2023-05-02T23:54:35.495Z,9.50
2023-05-02T23:57:03.128Z,9.50
2023-05-02T23:59:29.602Z,9.50
